aviador You're here:

SAZS Decoded Metar

SAN CARLOS DE BARILOCH in ARGENTINA
Report Time2018-01-18 13:00:00
UTC Time2018-01-18 13:53:01
Flight Rules vfr VFR
Wind310° at 12 kt
W.Decomp.*RWY 29: 11.7 kt HW 2.5 kt RCW
W.Rank310° ranks 11
Current wind is below 310° avg. (13.9)
Visibility9999 m
Phenomena:N/A
Clouds:N/A
Expected CloudBase > 4,000 ft AGL from Temp-Dew spread
CeilingNone
Temp17°C (ISA +7)
Dew Point07°C (52% RH)
AAT12.0°C
QNH1021 hPa
Density Alt3,504 ft
Elevation2,756 ft
Report Wrong Elevation
Raw Report
SAZS 181300Z 31012KT CAVOK 17/07 Q1021=

Extra information for SAZS:More info

Metar Taf Metar & Taf Last 4 Metars F.Rules Stats Wind Profile Meteogram Temp Stats Airport Information Weather charts Add Link Nearby VenuesMetar ALERT Operation Metar Decoded Social comments